createdAt,value
2022-10-10T00:00:50.021Z,101367.97
2022-10-10T00:03:18.498Z,101355.56
2022-10-10T00:05:47.818Z,101361.75
2022-10-10T00:08:15.516Z,101361.75
2022-10-10T00:10:43.267Z,101361.75
2022-10-10T00:13:11.013Z,101365.31
2022-10-10T00:15:38.831Z,101360.84
2022-10-10T00:18:06.644Z,101360.84
2022-10-10T00:20:34.319Z,101366.19
2022-10-10T00:23:03.367Z,101364.44
2022-10-10T00:25:31.207Z,101364.44
2022-10-10T00:28:02.031Z,101367.09
2022-10-10T00:30:29.819Z,101363.53
2022-10-10T00:32:59.450Z,101364.44
2022-10-10T00:35:27.859Z,101361.75
2022-10-10T00:37:55.650Z,101355.53
2022-10-10T00:40:25.787Z,101359.09
2022-10-10T00:42:53.887Z,101354.63
2022-10-10T00:45:29.896Z,101351.09
2022-10-10T00:48:01.771Z,101351.09
2022-10-10T00:50:35.409Z,101357.31
2022-10-10T00:53:06.099Z,101351.97
2022-10-10T00:55:36.721Z,101351.09
2022-10-10T00:58:05.689Z,101350.22
2022-10-10T01:00:33.524Z,101338.63
2022-10-10T01:03:01.299Z,101340.41
2022-10-10T01:05:29.195Z,101342.19
2022-10-10T01:07:57.268Z,101339.53
2022-10-10T01:10:25.327Z,101330.66
2022-10-10T01:13:08.591Z,101330.66
2022-10-10T01:15:47.414Z,101334.19
2022-10-10T01:18:25.340Z,101330.66
2022-10-10T01:21:14.463Z,101327.97
2022-10-10T01:24:11.728Z,101324.44
2022-10-10T01:26:59.011Z,101324.44
2022-10-10T01:29:32.425Z,101317.28
2022-10-10T01:32:06.382Z,101312.88
2022-10-10T01:34:42.461Z,101316.44
2022-10-10T01:37:18.066Z,101313.78
2022-10-10T01:39:56.226Z,101308.44
2022-10-10T01:42:29.544Z,101304.88
2022-10-10T01:44:59.219Z,101300.41
2022-10-10T01:47:27.012Z,101303.09
2022-10-10T01:49:58.934Z,101303.09
2022-10-10T01:52:43.674Z,101296.00
2022-10-10T01:55:29.563Z,101297.75
2022-10-10T01:58:10.828Z,101290.66
2022-10-10T02:00:49.867Z,101293.31
2022-10-10T02:03:21.539Z,101289.72
2022-10-10T02:05:56.158Z,101280.84
2022-10-10T02:08:30.371Z,101281.72
2022-10-10T02:11:01.567Z,101279.06
2022-10-10T02:13:36.275Z,101279.06
2022-10-10T02:16:10.124Z,101274.63
2022-10-10T02:18:38.426Z,101279.06
2022-10-10T02:21:09.529Z,101271.94
2022-10-10T02:23:38.017Z,101270.16
2022-10-10T02:26:05.793Z,101270.16
2022-10-10T02:28:40.961Z,101271.94
2022-10-10T02:31:13.765Z,101263.94
2022-10-10T02:33:49.441Z,101268.41
2022-10-10T02:36:19.857Z,101247.91
2022-10-10T02:38:48.907Z,101257.72
2022-10-10T02:41:19.447Z,101260.38
2022-10-10T02:43:48.852Z,101263.94
2022-10-10T02:46:18.363Z,101250.56
2022-10-10T02:48:46.113Z,101250.56
2022-10-10T02:51:16.837Z,101249.69
2022-10-10T02:53:44.602Z,101246.13
2022-10-10T02:56:12.511Z,101250.56
2022-10-10T02:58:40.234Z,101251.47
2022-10-10T03:01:07.897Z,101250.56
2022-10-10T03:03:37.106Z,101247.00
2022-10-10T03:06:05.157Z,101249.66
2022-10-10T03:08:33.238Z,101247.91
2022-10-10T03:11:02.469Z,101239.00
2022-10-10T03:13:30.575Z,101239.88
2022-10-10T03:15:58.372Z,101237.22
2022-10-10T03:18:26.122Z,101239.88
2022-10-10T03:20:56.937Z,101231.88
2022-10-10T03:23:25.751Z,101224.75
2022-10-10T03:25:53.489Z,101231.84
2022-10-10T03:28:21.578Z,101230.97
2022-10-10T03:30:49.831Z,101221.19
2022-10-10T03:33:17.498Z,101228.31
2022-10-10T03:35:45.356Z,101232.78
2022-10-10T03:38:14.856Z,101223.84
2022-10-10T03:40:44.301Z,101222.97
2022-10-10T03:43:14.012Z,101225.66
2022-10-10T03:45:44.232Z,101224.75
2022-10-10T03:48:12.809Z,101222.06
2022-10-10T03:50:40.521Z,101216.72
2022-10-10T03:53:08.468Z,101226.53
2022-10-10T03:55:40.816Z,101222.09
2022-10-10T03:58:08.603Z,101218.53
2022-10-10T04:00:36.748Z,101218.53
2022-10-10T04:03:06.324Z,101210.53
2022-10-10T04:05:35.304Z,101208.75
2022-10-10T04:08:03.233Z,101211.41
2022-10-10T04:10:34.188Z,101215.88
2022-10-10T04:13:03.327Z,101222.97
2022-10-10T04:15:31.755Z,101219.41
2022-10-10T04:17:59.480Z,101219.41
2022-10-10T04:20:28.141Z,101214.06
2022-10-10T04:22:55.903Z,101214.94
2022-10-10T04:25:23.855Z,101214.06
2022-10-10T04:27:51.619Z,101218.50
2022-10-10T04:30:21.028Z,101216.75
2022-10-10T04:32:49.079Z,101210.50
2022-10-10T04:35:17.002Z,101210.50
2022-10-10T04:37:45.692Z,101211.38
2022-10-10T04:40:13.458Z,101214.94
2022-10-10T04:42:41.200Z,101199.81
2022-10-10T04:45:09.930Z,101213.16
2022-10-10T04:47:39.002Z,101207.81
2022-10-10T04:50:07.887Z,101206.00
2022-10-10T04:52:35.700Z,101203.34
2022-10-10T04:55:03.456Z,101206.00
2022-10-10T04:57:34.075Z,101214.94
2022-10-10T05:00:01.947Z,101204.25
2022-10-10T05:02:29.745Z,101206.03
2022-10-10T05:04:58.976Z,101206.91
2022-10-10T05:07:30.950Z,101206.03
2022-10-10T05:09:58.786Z,101203.34
2022-10-10T05:12:26.824Z,101202.44
2022-10-10T05:14:54.628Z,101210.47
2022-10-10T05:17:22.408Z,101209.59
2022-10-10T05:19:51.563Z,101213.13
2022-10-10T05:22:20.661Z,101205.13
2022-10-10T05:24:48.367Z,101208.69
2022-10-10T05:27:16.118Z,101206.03
2022-10-10T05:29:43.751Z,101197.09
2022-10-10T05:32:11.646Z,101202.44
2022-10-10T05:34:39.424Z,101206.91
2022-10-10T05:37:07.207Z,101200.69
2022-10-10T05:39:36.455Z,101199.78
2022-10-10T05:42:04.918Z,101198.03
2022-10-10T05:44:34.969Z,101203.34
2022-10-10T05:47:04.361Z,101200.66
2022-10-10T05:49:32.307Z,101193.56
2022-10-10T05:52:00.207Z,101205.13
2022-10-10T05:54:28.298Z,101200.69
2022-10-10T05:56:57.431Z,101201.56
2022-10-10T05:59:25.349Z,101206.03
2022-10-10T06:01:53.694Z,101206.91
2022-10-10T06:04:21.515Z,101199.75
2022-10-10T06:06:49.316Z,101207.78
2022-10-10T06:09:17.388Z,101203.34
2022-10-10T06:11:45.244Z,101212.22
2022-10-10T06:14:14.411Z,101216.69
2022-10-10T06:16:45.185Z,101211.34
2022-10-10T06:19:15.045Z,101212.25
2022-10-10T06:21:43.038Z,101209.56
2022-10-10T06:24:11.724Z,101217.56
2022-10-10T06:26:39.610Z,101222.91
2022-10-10T06:29:07.484Z,101223.78
2022-10-10T06:31:39.367Z,101228.22
2022-10-10T06:34:07.374Z,101226.44
2022-10-10T06:36:35.201Z,101229.97
2022-10-10T06:39:02.962Z,101226.41
2022-10-10T06:41:35.194Z,101230.00
2022-10-10T06:44:02.885Z,101234.41
2022-10-10T06:46:30.796Z,101238.84
2022-10-10T06:49:00.177Z,101237.94
2022-10-10T06:51:27.955Z,101229.91
2022-10-10T06:53:57.872Z,101245.03
2022-10-10T06:56:28.777Z,101226.31
2022-10-10T06:59:02.299Z,101229.81
2022-10-10T07:01:31.725Z,101239.59
2022-10-10T07:04:00.799Z,101231.56
2022-10-10T07:06:32.518Z,101225.28
2022-10-10T07:09:02.398Z,101234.19
2022-10-10T07:11:30.253Z,101233.28
2022-10-10T07:13:58.080Z,101235.94
2022-10-10T07:16:25.975Z,101236.81
2022-10-10T07:18:53.702Z,101239.47
2022-10-10T07:21:22.897Z,101234.09
2022-10-10T07:23:50.674Z,101239.41
2022-10-10T07:26:22.093Z,101236.69
2022-10-10T07:28:49.994Z,101247.44
2022-10-10T07:31:17.771Z,101238.44
2022-10-10T07:33:50.509Z,101234.00
2022-10-10T07:36:19.576Z,101238.44
2022-10-10T07:38:52.917Z,101233.03
2022-10-10T07:41:22.971Z,101237.47
2022-10-10T07:43:55.180Z,101235.66
2022-10-10T07:46:22.966Z,101241.91
2022-10-10T07:48:50.665Z,101240.06
2022-10-10T07:51:19.092Z,101241.84
2022-10-10T07:53:47.769Z,101249.88
2022-10-10T07:56:16.905Z,101247.16
2022-10-10T07:58:44.615Z,101252.50
2022-10-10T08:01:14.154Z,101257.81
2022-10-10T08:03:42.420Z,101251.50
2022-10-10T08:06:12.130Z,101246.06
2022-10-10T08:08:50.047Z,101254.00
2022-10-10T08:11:20.550Z,101248.53
2022-10-10T08:13:48.480Z,101254.72
2022-10-10T08:16:16.920Z,101251.91
2022-10-10T08:18:44.754Z,101256.25
2022-10-10T08:21:14.549Z,101252.59
2022-10-10T08:23:42.813Z,101253.38
2022-10-10T08:26:12.649Z,101253.25
2022-10-10T08:28:44.709Z,101267.44
2022-10-10T08:31:14.996Z,101258.47
2022-10-10T08:33:45.838Z,101256.59
2022-10-10T08:36:20.265Z,101252.97
2022-10-10T08:38:48.525Z,101252.91
2022-10-10T08:41:33.012Z,101260.03
2022-10-10T08:44:06.457Z,101267.13
2022-10-10T08:46:42.276Z,101267.94
2022-10-10T08:49:20.431Z,101266.13
2022-10-10T08:51:55.644Z,101272.31
2022-10-10T08:54:27.014Z,101273.13
2022-10-10T08:56:59.668Z,101275.66
2022-10-10T08:59:35.055Z,101270.16
2022-10-10T09:02:26.334Z,101268.22
2022-10-10T09:05:01.530Z,101267.09
2022-10-10T09:07:45.080Z,101273.06
2022-10-10T09:10:24.166Z,101276.44
2022-10-10T09:13:02.935Z,101286.03
2022-10-10T09:15:36.251Z,101274.06
2022-10-10T09:18:14.666Z,101275.59
2022-10-10T09:20:49.849Z,101270.06
2022-10-10T09:23:23.290Z,101280.75
2022-10-10T09:25:57.184Z,101278.13
2022-10-10T09:28:36.662Z,101286.16
2022-10-10T09:31:09.614Z,101276.31
2022-10-10T09:33:41.410Z,101276.31
2022-10-10T09:36:17.598Z,101287.03
2022-10-10T09:38:50.322Z,101272.56
2022-10-10T09:41:24.840Z,101284.06
2022-10-10T09:44:00.004Z,101282.09
2022-10-10T09:46:33.248Z,101281.97
2022-10-10T09:49:01.648Z,101280.03
2022-10-10T09:51:33.910Z,101274.47
2022-10-10T09:54:03.536Z,101283.09
2022-10-10T09:56:41.035Z,101276.44
2022-10-10T09:59:49.430Z,101281.38
2022-10-10T10:02:28.261Z,101273.78
2022-10-10T10:05:16.944Z,101286.16
2022-10-10T10:07:53.729Z,101287.75
2022-10-10T10:10:44.633Z,101275.81
2022-10-10T10:13:23.119Z,101279.13
2022-10-10T10:16:16.159Z,101286.06
2022-10-10T10:19:04.270Z,101275.03
2022-10-10T10:22:01.766Z,101279.28
2022-10-10T10:25:09.858Z,101287.19
2022-10-10T10:27:39.627Z,101280.78
2022-10-10T10:30:25.351Z,101289.66
2022-10-10T10:33:11.044Z,101280.84
2022-10-10T10:35:46.748Z,101278.25
2022-10-10T10:38:37.516Z,101276.59
2022-10-10T10:41:41.895Z,101275.63
2022-10-10T10:44:38.813Z,101275.31
2022-10-10T10:47:27.767Z,101277.47
2022-10-10T10:50:20.225Z,101287.78
2022-10-10T10:53:13.429Z,101282.97
2022-10-10T10:56:21.967Z,101288.44
2022-10-10T11:00:16.572Z,101291.06
2022-10-10T11:02:01.944Z,101294.44
2022-10-10T11:05:18.901Z,101283.63
2022-10-10T11:08:20.019Z,101278.34
2022-10-10T11:11:29.783Z,101284.63
2022-10-10T11:14:20.241Z,101292.66
2022-10-10T11:17:43.180Z,101287.19
2022-10-10T11:20:03.449Z,101284.19
2022-10-10T11:22:55.969Z,101289.31
2022-10-10T11:25:27.834Z,101293.41
2022-10-10T11:28:01.183Z,101296.59
2022-10-10T11:30:32.626Z,101285.47
2022-10-10T11:33:06.764Z,101287.94
2022-10-10T11:35:37.898Z,101286.06
2022-10-10T11:38:14.161Z,101278.84
2022-10-10T11:40:49.464Z,101285.13
2022-10-10T11:43:26.516Z,101279.66
2022-10-10T11:46:03.260Z,101282.25
2022-10-10T11:48:43.603Z,101283.16
2022-10-10T11:51:25.923Z,101285.94
2022-10-10T11:54:00.583Z,101289.56
2022-10-10T11:56:34.335Z,101294.03
2022-10-10T11:59:09.219Z,101287.69
2022-10-10T12:01:42.175Z,101287.56
2022-10-10T12:04:10.046Z,101297.34
2022-10-10T12:06:41.896Z,101297.25
2022-10-10T12:09:17.483Z,101302.59
2022-10-10T12:11:52.603Z,101293.38
2022-10-10T12:14:24.125Z,101291.50
2022-10-10T12:16:53.026Z,101287.84
2022-10-10T12:19:22.946Z,101291.44
2022-10-10T12:21:57.272Z,101287.00
2022-10-10T12:24:28.996Z,101296.97
2022-10-10T12:27:28.963Z,101288.91
2022-10-10T12:30:18.905Z,101291.66
2022-10-10T12:32:47.340Z,101295.41
2022-10-10T12:35:40.376Z,101295.41
2022-10-10T12:38:17.816Z,101287.38
2022-10-10T12:41:20.222Z,101280.97
2022-10-10T12:44:12.374Z,101277.13
2022-10-10T12:46:40.527Z,101283.00
2022-10-10T12:49:21.334Z,101272.84
2022-10-10T12:52:21.650Z,101290.78
2022-10-10T12:54:51.467Z,101292.56
2022-10-10T12:57:28.474Z,101280.69
2022-10-10T13:00:01.187Z,101279.63
2022-10-10T13:02:29.966Z,101277.81
2022-10-10T13:05:02.307Z,101275.84
2022-10-10T13:07:30.730Z,101289.44
2022-10-10T13:10:08.834Z,101298.72
2022-10-10T13:12:38.031Z,101295.91
2022-10-10T13:15:20.084Z,101302.06
2022-10-10T13:17:47.847Z,101289.41
2022-10-10T13:20:29.856Z,101300.84
2022-10-10T13:22:58.663Z,101307.00
2022-10-10T13:25:27.439Z,101302.34
2022-10-10T13:27:56.686Z,101303.94
2022-10-10T13:30:26.491Z,101303.75
2022-10-10T13:32:55.996Z,101296.25
2022-10-10T13:35:26.144Z,101293.59
2022-10-10T13:37:57.308Z,101301.28
2022-10-10T13:40:26.561Z,101299.75
2022-10-10T13:42:56.489Z,101314.25
2022-10-10T13:45:32.080Z,101310.06
2022-10-10T13:48:17.276Z,101316.53
2022-10-10T13:50:56.793Z,101317.69
2022-10-10T13:53:32.412Z,101330.41
2022-10-10T13:56:05.571Z,101329.50
2022-10-10T13:58:41.950Z,101336.63
2022-10-10T14:01:29.498Z,101342.84
2022-10-10T14:04:01.111Z,101341.84
2022-10-10T14:06:29.949Z,101344.50
2022-10-10T14:09:04.789Z,101344.44
2022-10-10T14:11:34.806Z,101354.38
2022-10-10T14:14:09.181Z,101355.28
2022-10-10T14:16:36.865Z,101365.25
2022-10-10T14:19:04.688Z,101351.66
2022-10-10T14:21:32.577Z,101362.31
2022-10-10T14:24:00.275Z,101368.59
2022-10-10T14:26:28.051Z,101367.66
2022-10-10T14:28:55.936Z,101365.78
2022-10-10T14:31:28.711Z,101378.50
2022-10-10T14:33:56.709Z,101372.28
2022-10-10T14:36:24.466Z,101388.66
2022-10-10T14:38:52.478Z,101391.34
2022-10-10T14:41:20.184Z,101394.13
2022-10-10T14:43:47.913Z,101391.63
2022-10-10T14:46:19.623Z,101400.22
2022-10-10T14:48:48.859Z,101401.41
2022-10-10T14:51:34.911Z,101406.97
2022-10-10T14:54:10.982Z,101410.75
2022-10-10T14:57:09.062Z,101412.81
2022-10-10T14:59:47.377Z,101423.78
2022-10-10T15:02:16.642Z,101416.78
2022-10-10T15:04:45.970Z,101425.88
2022-10-10T15:07:15.178Z,101423.28
2022-10-10T15:10:02.484Z,101426.09
2022-10-10T15:12:30.741Z,101427.00
2022-10-10T15:14:58.691Z,101429.84
2022-10-10T15:17:27.238Z,101434.41
2022-10-10T15:19:56.439Z,101441.75
2022-10-10T15:22:24.282Z,101442.75
2022-10-10T15:24:52.017Z,101453.78
2022-10-10T15:27:20.026Z,101453.75
2022-10-10T15:29:49.424Z,101465.38
2022-10-10T15:32:17.344Z,101473.34
2022-10-10T15:34:45.157Z,101474.34
2022-10-10T15:37:15.419Z,101479.19
2022-10-10T15:39:44.715Z,101487.50
2022-10-10T15:42:16.290Z,101493.84
2022-10-10T15:44:48.021Z,101491.38
2022-10-10T15:47:17.697Z,101509.56
2022-10-10T15:49:45.615Z,101514.91
2022-10-10T15:52:18.686Z,101520.69
2022-10-10T15:54:49.317Z,101528.09
2022-10-10T15:57:20.765Z,101534.44
2022-10-10T15:59:48.684Z,101532.03
2022-10-10T16:02:17.151Z,101536.84
2022-10-10T16:04:46.105Z,101532.25
2022-10-10T16:07:28.628Z,101549.38
2022-10-10T16:09:57.864Z,101553.28
2022-10-10T16:12:25.796Z,101551.16
2022-10-10T16:14:53.604Z,101552.03
2022-10-10T16:17:30.495Z,101562.13
2022-10-10T16:19:58.250Z,101561.25
2022-10-10T16:22:27.343Z,101563.03
2022-10-10T16:27:43.922Z,101580.25
2022-10-10T16:30:12.696Z,101581.06
2022-10-10T16:32:42.641Z,101587.59
2022-10-10T16:35:11.372Z,101596.59
2022-10-10T16:37:40.510Z,101603.88
2022-10-10T16:40:09.243Z,101609.31
2022-10-10T16:42:37.102Z,101613.84
2022-10-10T16:45:05.532Z,101612.16
2022-10-10T16:47:33.320Z,101636.69
2022-10-10T16:50:03.626Z,101623.31
2022-10-10T16:52:33.170Z,101643.22
2022-10-10T16:55:02.445Z,101647.88
2022-10-10T16:57:30.609Z,101659.88
2022-10-10T16:59:58.631Z,101662.78
2022-10-10T17:02:26.383Z,101661.03
2022-10-10T17:04:54.168Z,101665.88
2022-10-10T17:07:21.863Z,101682.22
2022-10-10T17:09:49.676Z,101690.41
2022-10-10T17:12:19.415Z,101694.22
2022-10-10T17:14:47.213Z,101708.69
2022-10-10T17:17:14.982Z,101710.53
2022-10-10T17:19:42.845Z,101710.69
2022-10-10T17:22:10.694Z,101726.84
2022-10-10T17:24:38.484Z,101726.78
2022-10-10T17:27:06.402Z,101734.13
2022-10-10T17:29:35.551Z,101734.94
2022-10-10T17:32:06.474Z,101744.03
2022-10-10T17:34:35.337Z,101750.44
2022-10-10T17:37:03.879Z,101757.72
2022-10-10T17:39:32.832Z,101766.66
2022-10-10T17:42:01.044Z,101771.16
2022-10-10T17:44:29.105Z,101776.41
2022-10-10T17:46:58.359Z,101776.47
2022-10-10T17:49:26.467Z,101796.16
2022-10-10T17:51:54.472Z,101796.25
2022-10-10T17:54:23.462Z,101798.91
2022-10-10T17:56:56.029Z,101810.56
2022-10-10T17:59:23.936Z,101813.25
2022-10-10T18:02:03.435Z,101820.41
2022-10-10T18:04:36.106Z,101834.72
2022-10-10T18:07:04.085Z,101831.25
2022-10-10T18:09:31.994Z,101826.75
2022-10-10T18:11:59.943Z,101841.06
2022-10-10T18:14:27.810Z,101850.13
2022-10-10T18:16:55.906Z,101850.13
2022-10-10T18:19:23.731Z,101853.69
2022-10-10T18:21:52.998Z,101852.81
2022-10-10T18:24:20.973Z,101861.84
2022-10-10T18:26:52.579Z,101855.53
2022-10-10T18:29:22.485Z,101861.81
2022-10-10T18:31:52.533Z,101868.06
2022-10-10T18:34:20.451Z,101874.34
2022-10-10T18:36:50.230Z,101874.38
2022-10-10T18:39:19.953Z,101883.38
2022-10-10T18:41:47.969Z,101879.84
2022-10-10T18:44:17.722Z,101888.88
2022-10-10T18:46:46.208Z,101902.34
2022-10-10T18:49:14.848Z,101900.59
2022-10-10T18:51:43.689Z,101901.53
2022-10-10T18:54:22.779Z,101910.56
2022-10-10T18:56:50.607Z,101907.91
2022-10-10T18:59:22.144Z,101916.84
2022-10-10T19:01:52.305Z,101915.97
2022-10-10T19:04:21.716Z,101915.06
2022-10-10T19:06:54.683Z,101915.06
2022-10-10T19:09:27.200Z,101924.03
2022-10-10T19:11:55.286Z,101929.44
2022-10-10T19:14:23.230Z,101922.28
2022-10-10T19:16:51.215Z,101925.88
2022-10-10T19:19:20.346Z,101938.44
2022-10-10T19:21:54.586Z,101929.50
2022-10-10T19:24:22.589Z,101935.78
2022-10-10T19:26:54.798Z,101942.94
2022-10-10T19:29:23.327Z,101942.06
2022-10-10T19:31:51.612Z,101949.22
2022-10-10T19:34:19.515Z,101950.13
2022-10-10T19:36:47.303Z,101959.09
2022-10-10T19:39:15.251Z,101963.53
2022-10-10T19:41:43.106Z,101964.44
2022-10-10T19:44:12.336Z,101968.91
2022-10-10T19:46:40.389Z,101973.38
2022-10-10T19:49:08.391Z,101976.06
2022-10-10T19:51:36.164Z,101979.66
2022-10-10T19:54:04.060Z,101984.09
2022-10-10T19:56:31.994Z,101984.09
2022-10-10T19:59:04.249Z,101985.00
2022-10-10T20:01:34.040Z,101992.16
2022-10-10T20:04:04.177Z,102001.97
2022-10-10T20:06:33.365Z,102004.66
2022-10-10T20:09:01.366Z,101997.50
2022-10-10T20:11:29.355Z,102009.97
2022-10-10T20:13:58.443Z,102012.66
2022-10-10T20:16:27.698Z,102020.69
2022-10-10T20:18:59.105Z,102026.03
2022-10-10T20:21:31.754Z,102030.50
2022-10-10T20:24:00.288Z,102036.72
2022-10-10T20:26:28.630Z,102037.59
2022-10-10T20:28:58.082Z,102042.97
2022-10-10T20:31:27.760Z,102049.19
2022-10-10T20:34:04.121Z,102046.50
2022-10-10T20:36:41.073Z,102055.41
2022-10-10T20:39:12.680Z,102056.25
2022-10-10T20:41:41.780Z,102055.38
2022-10-10T20:44:12.630Z,102064.28
2022-10-10T20:46:42.988Z,102073.19
2022-10-10T20:49:14.057Z,102072.25
2022-10-10T20:51:48.333Z,102071.34
2022-10-10T20:54:17.727Z,102075.78
2022-10-10T20:56:45.689Z,102078.44
2022-10-10T20:59:13.786Z,102087.34
2022-10-10T21:01:45.137Z,102083.72
2022-10-10T21:04:13.986Z,102088.16
2022-10-10T21:06:44.026Z,102090.81
2022-10-10T21:09:14.026Z,102094.34
2022-10-10T21:11:42.506Z,102090.75
2022-10-10T21:14:11.863Z,102108.56
2022-10-10T21:16:41.791Z,102100.50
2022-10-10T21:19:12.248Z,102100.47
2022-10-10T21:21:40.563Z,102113.84
2022-10-10T21:24:12.202Z,102122.72
2022-10-10T21:26:40.869Z,102114.69
2022-10-10T21:29:08.833Z,102119.97
2022-10-10T21:31:38.459Z,102117.28
2022-10-10T21:34:08.406Z,102131.50
2022-10-10T21:36:37.407Z,102120.78
2022-10-10T21:39:06.905Z,102130.59
2022-10-10T21:41:37.736Z,102134.13
2022-10-10T21:44:05.979Z,102130.50
2022-10-10T21:46:36.968Z,102129.59
2022-10-10T21:49:06.943Z,102134.91
2022-10-10T21:51:37.334Z,102135.78
2022-10-10T21:54:05.310Z,102142.91
2022-10-10T21:56:33.753Z,102145.50
2022-10-10T21:59:02.980Z,102147.28
2022-10-10T22:01:32.949Z,102141.88
2022-10-10T22:04:01.668Z,102147.22
2022-10-10T22:06:29.616Z,102145.41
2022-10-10T22:09:00.344Z,102147.13
2022-10-10T22:11:29.880Z,102148.91
2022-10-10T22:13:57.709Z,102146.13
2022-10-10T22:16:26.900Z,102155.91
2022-10-10T22:18:55.672Z,102158.56
2022-10-10T22:21:29.201Z,102150.53
2022-10-10T22:23:58.976Z,102154.06
2022-10-10T22:26:26.894Z,102156.72
2022-10-10T22:28:54.774Z,102154.91
2022-10-10T22:31:22.614Z,102166.44
2022-10-10T22:33:51.924Z,102163.69
2022-10-10T22:36:19.872Z,102168.16
2022-10-10T22:38:47.870Z,102172.56
2022-10-10T22:41:15.724Z,102175.22
2022-10-10T22:43:43.544Z,102172.50
2022-10-10T22:46:11.454Z,102179.63
2022-10-10T22:48:39.561Z,102168.88
2022-10-10T22:51:12.290Z,102169.75
2022-10-10T22:53:40.722Z,102173.28
2022-10-10T22:56:09.366Z,102179.47
2022-10-10T22:58:37.270Z,102179.44
2022-10-10T23:01:06.578Z,102183.91
2022-10-10T23:03:34.567Z,102182.97
2022-10-10T23:06:03.155Z,102181.13
2022-10-10T23:08:35.664Z,102189.13
2022-10-10T23:11:03.570Z,102187.28
2022-10-10T23:13:32.766Z,102190.81
2022-10-10T23:16:00.631Z,102195.22
2022-10-10T23:18:29.016Z,102191.59
2022-10-10T23:20:57.118Z,102193.31
2022-10-10T23:23:25.123Z,102193.31
2022-10-10T23:25:54.553Z,102193.28
2022-10-10T23:28:22.763Z,102204.81
2022-10-10T23:30:50.544Z,102195.91
2022-10-10T23:33:18.664Z,102198.59
2022-10-10T23:35:56.697Z,102204.75
2022-10-10T23:38:24.468Z,102203.78
2022-10-10T23:40:52.457Z,102219.78
2022-10-10T23:43:24.850Z,102206.34
2022-10-10T23:45:52.712Z,102204.53
2022-10-10T23:48:20.961Z,102210.75
2022-10-10T23:50:48.732Z,102206.25
2022-10-10T23:53:16.550Z,102214.22
2022-10-10T23:55:44.988Z,102219.53
2022-10-10T23:58:12.811Z,102228.31
